Aérodrome :
LOGIN :

S'inscrire | Disclaimer

   EN    FR    IT 

 










Légende :    VFR   VFR Marginal   IFR   IFR Intensif   IFR Très Intensif
Visi : 
Plafond : 
>= 8 km
>= 3000ft
5 à 8 km
1000 à 3000 ft
1500m à 5 km
500 à 1000 ft
800 à 1500m
200 à 500 ft
< 800m
< 200 ft
Symboles :   Orages  Brouillard  Fortes neiges  Fortes précipitations  Vent > 20 kt
SIGMETs :   Divers  Orages  Givrage  Turbulence  Onde Orograph.  Cendres Volcan.







- Altitude de l'aérodrome : 505 ft
- Code IATA : SXB
- Voir les cartes d'approche


LFST - Strasbourg

DERNIER METAR :
  • 211000Z AUTO 18008KT CAVOK 24/15 Q1011 BECMG 25015G30KT FEW065TCU

METARs EXPIRÉS :
  • 210930Z AUTO 20010KT 170V230 9999 FEW056 BKN180 BKN200 25/15 Q1011 BECMG 25015G30KT FEW065TCU
  • 210900Z AUTO 19010KT 9999 FEW056 OVC210 24/15 Q1012 BECMG 25015G30KT FEW065TCU
  • 210830Z AUTO 17011KT CAVOK 23/15 Q1011 BECMG 25015G30KT FEW065TCU
  • 210800Z AUTO 17012KT CAVOK 22/15 Q1011 BECMG 25015G30KT FEW065TCU
  • 210730Z AUTO 18008KT 160V220 CAVOK 21/15 Q1011 BECMG 25015G30KT FEW065TCU

TAF TAF LFST
Valide du 21 à 06h jusqu'au 22 à 06h UTC


210500Z 2106/2206 19006KT CAVOK
BECMG 2109/2112 25015G30KT FEW065TCU
TEMPO 2113/2117 30020G35KT 2000 SHRA BKN015 FEW030CB
BECMG 2117/2120 23005KT SCT040
Pas de NOTAMs connus pour ce terrain.



MET'MAP, la Météo Aéronautique d'un coup d'oeil ! - Copyright ORBIFLY Décembre 2007 - Disclaimer

ORBIFLY MET'MAP TEAM :

Programmation & Développement : Alexandra Zaïnal
Conception & Développement : Baudouin d'Aumeries
Co-Programmation & Développement : Marc-Olivier Méhu
Soutien technique & logistique : Manuel Goepfert

Contact : metmap@orbifly.com




SOURCES & CREDITS :

   NOAA